CYLW/YLW METAR and TAF weather

Enter ICAO airport designator
Station Type Date Time Source
CYLW METAR 2020/06/02 19:00 UTC NOAA

CYLW 021900Z AUTO VRB07KT 9SM CLR 19/03 A3001 RMK SLP163 DENSITY ALT 2100FT


Station Type Date Time Source
CYLW Decoded METAR 2020/06/02 19:00 UTC NOAA

Kelowna Airport, Canada (CYLW) 49-58N 119-23W 430M
Jun 02, 2020 - 03:00 PM EDT / 2020.06.02 1900 UTC
Wind: Variable at 8 MPH (7 KT):0
Visibility: 9 mile(s):0
Sky conditions: clear
Temperature: 66 F (19 C)
Dew Point: 37 F (3 C)
Relative Humidity: 34%
Pressure (altimeter): 30.01 in. Hg (1016 hPa)
ob: CYLW 021900Z AUTO VRB07KT 9SM CLR 19/03 A3001 RMK SLP163 DENSITY ALT 2100FT
cycle: 19

Station Type Date Time Source
CYLW TAF 2020/06/02 19:42 UTC NOAA

TAF CYLW 021838Z 0219/0307 18006KT P6SM BKN100
BECMG 0219/0221 21012G22KT
FM022200 21012G22KT P6SM SCT050 BKN080
TEMPO 0222/0301 P6SM -SHRA BKN050 OVC080
FM030100 23012G22KT P6SM SCT060
TEMPO 0301/0303 BKN060
BECMG 0303/0305 19006KT
RMK FCST BASED ON AUTO OBS. NXT FCST BY 030100Z

Example: see airport list